createdAt,value
2019-02-17T00:01:35.391Z,99.90
2019-02-17T00:04:08.313Z,99.90
2019-02-17T00:06:39.295Z,99.90
2019-02-17T00:09:13.277Z,99.90
2019-02-17T00:11:44.293Z,99.90
2019-02-17T00:14:15.326Z,99.90
2019-02-17T00:16:47.042Z,99.90
2019-02-17T00:19:17.900Z,99.90
2019-02-17T00:21:48.863Z,99.90
2019-02-17T00:24:19.925Z,99.90
2019-02-17T00:26:51.442Z,99.90
2019-02-17T00:29:22.113Z,99.90
2019-02-17T00:31:53.193Z,99.90
2019-02-17T00:34:23.814Z,99.90
2019-02-17T00:36:55.061Z,99.90
2019-02-17T00:39:25.884Z,99.90
2019-02-17T00:41:56.744Z,99.90
2019-02-17T00:44:27.465Z,99.90
2019-02-17T00:46:58.981Z,99.90
2019-02-17T00:49:29.675Z,99.90
2019-02-17T00:52:00.478Z,99.90
2019-02-17T00:54:31.340Z,99.90
2019-02-17T00:57:02.477Z,99.90
2019-02-17T00:59:33.280Z,99.90
2019-02-17T01:02:04.354Z,99.90
2019-02-17T01:04:36.902Z,99.90
2019-02-17T01:07:08.903Z,99.90
2019-02-17T01:09:39.709Z,99.90
2019-02-17T01:12:10.706Z,99.90
2019-02-17T01:14:41.699Z,99.90
2019-02-17T01:17:12.915Z,99.90
2019-02-17T01:19:44.105Z,99.90
2019-02-17T01:22:15.063Z,99.90
2019-02-17T01:24:45.829Z,99.90
2019-02-17T01:27:16.945Z,99.90
2019-02-17T01:29:47.665Z,99.90
2019-02-17T01:32:18.389Z,99.90
2019-02-17T01:34:52.243Z,99.90
2019-02-17T01:37:22.839Z,99.90
2019-02-17T01:39:56.911Z,99.90
2019-02-17T01:42:27.860Z,99.90
2019-02-17T01:44:58.479Z,99.90
2019-02-17T01:47:30.411Z,99.90
2019-02-17T01:50:01.923Z,99.90
2019-02-17T01:52:34.155Z,99.90
2019-02-17T01:55:06.240Z,99.90
2019-02-17T01:57:37.436Z,99.90
2019-02-17T02:00:10.191Z,99.90
2019-02-17T02:02:41.195Z,99.90
2019-02-17T02:05:12.733Z,99.90
2019-02-17T02:07:48.220Z,99.90
2019-02-17T02:10:19.101Z,99.90
2019-02-17T02:12:50.087Z,99.90
2019-02-17T02:15:20.870Z,99.90
2019-02-17T02:17:51.540Z,99.90
2019-02-17T02:20:22.522Z,99.90
2019-02-17T02:22:53.738Z,99.90
2019-02-17T02:25:24.867Z,99.90
2019-02-17T02:27:56.028Z,99.90
2019-02-17T02:30:27.329Z,99.90
2019-02-17T02:33:00.027Z,99.90
2019-02-17T02:35:30.741Z,99.90
2019-02-17T02:38:01.581Z,99.90
2019-02-17T02:40:32.347Z,99.90
2019-02-17T02:43:03.927Z,99.90
2019-02-17T02:45:35.383Z,99.90
2019-02-17T02:48:06.617Z,99.90
2019-02-17T02:50:38.620Z,99.90
2019-02-17T02:53:11.105Z,99.90
2019-02-17T02:55:42.210Z,99.90
2019-02-17T02:58:13.640Z,99.90
2019-02-17T03:00:44.828Z,99.90
2019-02-17T03:03:16.154Z,99.90
2019-02-17T03:06:09.686Z,99.90
2019-02-17T03:08:40.497Z,99.90
2019-02-17T03:11:12.056Z,99.90
2019-02-17T03:13:43.242Z,99.90
2019-02-17T03:16:14.801Z,99.90
2019-02-17T03:18:46.102Z,99.90
2019-02-17T03:21:18.145Z,99.90
2019-02-17T03:23:49.518Z,99.90
2019-02-17T03:26:20.515Z,99.90
2019-02-17T03:28:52.416Z,99.90
2019-02-17T03:31:23.473Z,99.90
2019-02-17T03:33:55.063Z,99.90
2019-02-17T03:36:28.166Z,99.90
2019-02-17T03:38:59.700Z,99.90
2019-02-17T03:41:31.280Z,99.90
2019-02-17T03:44:02.934Z,99.90
2019-02-17T03:46:33.740Z,99.90
2019-02-17T03:49:05.100Z,99.90
2019-02-17T03:51:36.698Z,99.90
2019-02-17T03:54:07.631Z,99.90
2019-02-17T03:56:38.784Z,99.90
2019-02-17T03:59:10.059Z,99.90
2019-02-17T04:01:41.074Z,99.90
2019-02-17T04:04:12.035Z,99.90
2019-02-17T04:06:43.088Z,99.90
2019-02-17T04:09:13.998Z,99.90
2019-02-17T04:11:44.687Z,99.90
2019-02-17T04:14:15.759Z,99.90
2019-02-17T04:16:46.511Z,99.90
2019-02-17T04:19:17.258Z,99.90
2019-02-17T04:21:49.219Z,99.90
2019-02-17T04:24:19.843Z,99.90
2019-02-17T04:26:51.169Z,99.90
2019-02-17T04:29:23.573Z,99.90
2019-02-17T04:31:57.759Z,99.90
2019-02-17T04:34:28.246Z,99.90
2019-02-17T04:36:58.804Z,99.90
2019-02-17T04:39:29.553Z,99.90
2019-02-17T04:42:00.909Z,99.90
2019-02-17T04:44:31.962Z,99.90
2019-02-17T04:47:03.774Z,99.90
2019-02-17T04:49:35.510Z,99.90
2019-02-17T04:52:06.482Z,99.90
2019-02-17T04:54:37.543Z,99.90
2019-02-17T04:57:08.280Z,99.90
2019-02-17T04:59:39.244Z,99.90
2019-02-17T05:02:10.055Z,99.90
2019-02-17T05:04:40.903Z,99.90
2019-02-17T05:07:12.019Z,99.90
2019-02-17T05:09:43.789Z,99.90
2019-02-17T05:12:14.678Z,99.90
2019-02-17T05:14:45.859Z,99.90
2019-02-17T05:17:16.685Z,99.90
2019-02-17T05:19:47.941Z,99.90
2019-02-17T05:22:19.291Z,99.90
2019-02-17T05:24:50.623Z,99.90
2019-02-17T05:27:21.178Z,99.90
2019-02-17T05:29:51.943Z,99.90
2019-02-17T05:32:22.939Z,99.90
2019-02-17T05:34:53.823Z,99.90
2019-02-17T05:37:24.651Z,99.90
2019-02-17T05:39:57.501Z,99.90
2019-02-17T05:42:28.208Z,99.90
2019-02-17T05:44:58.777Z,99.90
2019-02-17T05:47:29.803Z,99.90
2019-02-17T05:50:02.145Z,99.90
2019-02-17T05:52:32.866Z,99.90
2019-02-17T05:55:04.139Z,99.90
2019-02-17T05:57:35.959Z,99.90
2019-02-17T06:00:08.245Z,99.90
2019-02-17T06:02:39.797Z,99.90
2019-02-17T06:05:11.365Z,99.90
2019-02-17T06:07:42.258Z,99.90
2019-02-17T06:10:12.927Z,99.90
2019-02-17T06:12:43.927Z,99.90
2019-02-17T06:15:14.737Z,99.90
2019-02-17T06:17:45.822Z,99.90
2019-02-17T06:20:16.657Z,99.90
2019-02-17T06:22:48.039Z,99.90
2019-02-17T06:25:19.475Z,99.90
2019-02-17T06:27:51.223Z,99.90
2019-02-17T06:30:23.502Z,99.90
2019-02-17T06:32:54.481Z,99.90
2019-02-17T06:35:25.838Z,99.90
2019-02-17T06:37:56.986Z,99.90
2019-02-17T06:40:27.927Z,99.90
2019-02-17T06:42:58.888Z,99.90
2019-02-17T06:45:29.753Z,99.90
2019-02-17T06:48:01.139Z,99.90
2019-02-17T06:50:32.942Z,99.90
2019-02-17T06:53:04.463Z,99.90
2019-02-17T06:55:43.838Z,99.90
2019-02-17T06:58:15.357Z,99.90
2019-02-17T07:00:49.274Z,99.90
2019-02-17T07:03:20.003Z,99.90
2019-02-17T07:06:10.143Z,99.90
2019-02-17T07:08:40.854Z,99.90
2019-02-17T07:11:16.921Z,99.90
2019-02-17T07:13:48.115Z,99.90
2019-02-17T07:16:20.453Z,99.90
2019-02-17T07:18:51.791Z,99.90
2019-02-17T07:21:23.985Z,99.90
2019-02-17T07:23:54.699Z,99.90
2019-02-17T07:26:25.624Z,99.90
2019-02-17T07:28:56.608Z,99.90
2019-02-17T07:31:34.656Z,99.90
2019-02-17T07:34:01.260Z,99.90
2019-02-17T07:36:31.873Z,99.90
2019-02-17T07:39:02.869Z,99.90
2019-02-17T07:41:34.594Z,99.90
2019-02-17T07:44:05.389Z,99.90
2019-02-17T07:46:36.343Z,99.90
2019-02-17T07:49:06.845Z,99.90
2019-02-17T07:51:40.706Z,98.50
2019-02-17T07:54:11.284Z,95.70
2019-02-17T07:56:43.079Z,91.50
2019-02-17T07:59:15.179Z,87.30
2019-02-17T08:01:45.827Z,81.70
2019-02-17T08:04:16.581Z,78.70
2019-02-17T08:06:47.841Z,74.90
2019-02-17T08:09:19.459Z,72.50
2019-02-17T08:11:51.727Z,74.50
2019-02-17T08:14:27.112Z,71.60
2019-02-17T08:16:57.864Z,66.10
2019-02-17T08:19:28.730Z,62.70
2019-02-17T08:21:59.431Z,58.20
2019-02-17T08:24:30.430Z,58.00
2019-02-17T08:27:04.664Z,55.50
2019-02-17T08:29:36.107Z,58.20
2019-02-17T08:32:06.796Z,57.90
2019-02-17T08:34:39.078Z,58.10
2019-02-17T08:37:10.246Z,57.60
2019-02-17T08:39:41.050Z,57.60
2019-02-17T08:42:11.874Z,56.40
2019-02-17T08:44:43.744Z,56.00
2019-02-17T08:47:17.839Z,55.00
2019-02-17T08:49:50.593Z,54.70
2019-02-17T08:52:21.267Z,53.60
2019-02-17T08:54:51.944Z,53.40
2019-02-17T08:57:23.364Z,52.70
2019-02-17T08:59:54.359Z,51.60
2019-02-17T09:02:25.464Z,50.50
2019-02-17T09:04:59.386Z,49.50
2019-02-17T09:07:30.108Z,48.00
2019-02-17T09:10:01.089Z,47.90
2019-02-17T09:12:32.079Z,46.80
2019-02-17T09:15:03.739Z,46.40
2019-02-17T09:17:34.850Z,45.80
2019-02-17T09:20:07.936Z,44.70
2019-02-17T09:22:39.199Z,45.10
2019-02-17T09:25:11.151Z,45.00
2019-02-17T09:27:42.198Z,44.90
2019-02-17T09:30:16.244Z,45.50
2019-02-17T09:32:49.111Z,45.60
2019-02-17T09:35:20.016Z,45.30
2019-02-17T09:37:50.776Z,45.90
2019-02-17T09:40:22.024Z,46.80
2019-02-17T09:42:54.462Z,45.90
2019-02-17T09:45:25.467Z,45.30
2019-02-17T09:47:56.684Z,45.00
2019-02-17T09:50:29.994Z,43.90
2019-02-17T09:53:02.272Z,43.80
2019-02-17T09:55:33.498Z,43.10
2019-02-17T09:58:04.438Z,42.60
2019-02-17T10:00:35.313Z,43.20
2019-02-17T10:03:06.472Z,42.60
2019-02-17T10:05:37.684Z,42.10
2019-02-17T10:08:09.272Z,42.20
2019-02-17T10:10:40.391Z,42.80
2019-02-17T10:13:11.133Z,42.50
2019-02-17T10:15:42.336Z,43.40
2019-02-17T10:18:13.864Z,43.10
2019-02-17T10:20:44.847Z,43.90
2019-02-17T10:23:15.596Z,44.00
2019-02-17T10:25:46.431Z,43.30
2019-02-17T10:28:17.314Z,43.80
2019-02-17T10:30:48.153Z,44.20
2019-02-17T10:33:19.363Z,44.60
2019-02-17T10:35:50.776Z,43.60
2019-02-17T10:38:21.596Z,45.10
2019-02-17T10:40:52.834Z,43.80
2019-02-17T10:43:23.733Z,44.10
2019-02-17T10:45:55.547Z,43.20
2019-02-17T10:48:26.220Z,42.60
2019-02-17T10:50:56.996Z,42.80
2019-02-17T10:53:28.871Z,41.00
2019-02-17T10:55:59.690Z,41.70
2019-02-17T10:58:30.486Z,42.20
2019-02-17T11:01:06.001Z,41.00
2019-02-17T11:03:36.887Z,40.20
2019-02-17T11:06:07.725Z,39.20
2019-02-17T11:08:38.489Z,39.40
2019-02-17T11:11:10.512Z,39.10
2019-02-17T11:13:41.245Z,37.80
2019-02-17T11:16:12.284Z,38.50
2019-02-17T11:18:43.283Z,37.20
2019-02-17T11:21:14.285Z,38.30
2019-02-17T11:23:45.231Z,37.20
2019-02-17T11:26:16.392Z,37.50
2019-02-17T11:28:47.265Z,36.90
2019-02-17T11:31:18.551Z,37.10
2019-02-17T11:33:49.136Z,35.30
2019-02-17T11:36:20.526Z,36.40
2019-02-17T11:38:52.345Z,35.70
2019-02-17T11:41:23.187Z,36.20
2019-02-17T11:43:53.830Z,35.90
2019-02-17T11:46:24.663Z,36.80
2019-02-17T11:48:55.503Z,37.10
2019-02-17T11:51:26.860Z,36.90
2019-02-17T11:53:57.554Z,37.30
2019-02-17T11:56:28.566Z,36.50
2019-02-17T11:58:59.701Z,36.50
2019-02-17T12:01:30.727Z,36.50
2019-02-17T12:04:01.756Z,36.10
2019-02-17T12:06:32.819Z,35.90
2019-02-17T12:09:03.824Z,35.60
2019-02-17T12:11:34.946Z,35.90
2019-02-17T12:14:06.866Z,36.50
2019-02-17T12:16:38.913Z,36.40
2019-02-17T12:19:11.351Z,36.10
2019-02-17T12:22:13.940Z,37.10
2019-02-17T12:25:10.320Z,36.50
2019-02-17T12:27:53.386Z,36.40
2019-02-17T12:30:25.622Z,36.60
2019-02-17T12:32:56.863Z,36.10
2019-02-17T12:35:27.621Z,35.90
2019-02-17T12:37:58.253Z,35.90
2019-02-17T12:40:30.041Z,36.50
2019-02-17T12:43:00.856Z,37.70
2019-02-17T12:45:31.668Z,35.90
2019-02-17T12:48:02.394Z,35.50
2019-02-17T12:50:33.138Z,35.20
2019-02-17T12:53:04.436Z,35.80
2019-02-17T12:55:36.389Z,35.70
2019-02-17T12:58:07.170Z,35.30
2019-02-17T13:00:37.961Z,35.90
2019-02-17T13:03:10.287Z,37.00
2019-02-17T13:05:41.640Z,36.60
2019-02-17T13:08:13.624Z,36.20
2019-02-17T13:10:45.268Z,36.20
2019-02-17T13:13:17.206Z,37.40
2019-02-17T13:15:48.359Z,37.80
2019-02-17T13:18:19.340Z,37.40
2019-02-17T13:20:50.037Z,35.60
2019-02-17T13:23:21.358Z,36.50
2019-02-17T13:25:52.507Z,36.60
2019-02-17T13:28:23.430Z,36.20
2019-02-17T13:30:54.623Z,36.00
2019-02-17T13:33:26.565Z,35.90
2019-02-17T13:35:57.351Z,37.10
2019-02-17T13:38:28.348Z,35.80
2019-02-17T13:40:59.064Z,35.50
2019-02-17T13:43:29.869Z,35.80
2019-02-17T13:46:00.550Z,35.40
2019-02-17T13:48:32.460Z,36.50
2019-02-17T13:51:03.558Z,37.20
2019-02-17T13:53:35.378Z,36.60
2019-02-17T13:56:06.371Z,37.20
2019-02-17T13:58:37.664Z,36.40
2019-02-17T14:01:10.595Z,36.00
2019-02-17T14:03:48.569Z,36.30
2019-02-17T14:06:15.547Z,36.80
2019-02-17T14:08:45.996Z,36.90
2019-02-17T14:11:17.564Z,37.10
2019-02-17T14:13:48.526Z,36.90
2019-02-17T14:16:19.549Z,37.50
2019-02-17T14:18:53.832Z,38.10
2019-02-17T14:21:24.958Z,37.10
2019-02-17T14:23:55.715Z,37.80
2019-02-17T14:26:26.569Z,37.00
2019-02-17T14:28:58.004Z,37.70
2019-02-17T14:31:28.739Z,37.20
2019-02-17T14:33:59.806Z,37.50
2019-02-17T14:36:30.990Z,39.00
2019-02-17T14:39:01.913Z,39.10
2019-02-17T14:41:33.225Z,39.30
2019-02-17T14:44:04.876Z,38.40
2019-02-17T14:46:35.959Z,38.80
2019-02-17T14:49:07.370Z,39.50
2019-02-17T14:51:38.650Z,39.30
2019-02-17T14:54:09.472Z,40.50
2019-02-17T14:56:40.953Z,40.20
2019-02-17T14:59:12.511Z,41.20
2019-02-17T15:01:43.902Z,41.00
2019-02-17T15:04:14.867Z,42.90
2019-02-17T15:06:46.521Z,42.50
2019-02-17T15:09:17.691Z,42.50
2019-02-17T15:11:48.500Z,43.90
2019-02-17T15:14:19.860Z,43.90
2019-02-17T15:16:52.043Z,45.00
2019-02-17T15:19:23.393Z,45.40
2019-02-17T15:21:54.111Z,46.20
2019-02-17T15:24:25.385Z,44.40
2019-02-17T15:26:56.297Z,44.70
2019-02-17T15:29:27.762Z,45.20
2019-02-17T15:31:59.559Z,46.70
2019-02-17T15:34:31.316Z,46.90
2019-02-17T15:37:03.231Z,46.80
2019-02-17T15:39:37.410Z,47.70
2019-02-17T15:42:09.041Z,48.00
2019-02-17T15:44:40.462Z,48.70
2019-02-17T15:47:11.329Z,48.10
2019-02-17T15:49:42.586Z,49.70
2019-02-17T15:52:13.924Z,50.10
2019-02-17T15:54:47.544Z,50.30
2019-02-17T15:57:18.593Z,52.60
2019-02-17T15:59:49.570Z,52.30
2019-02-17T16:02:21.012Z,53.10
2019-02-17T16:04:55.565Z,54.30
2019-02-17T16:07:26.601Z,53.10
2019-02-17T16:09:58.748Z,54.00
2019-02-17T16:12:30.275Z,53.10
2019-02-17T16:15:01.871Z,55.60
2019-02-17T16:17:33.632Z,55.20
2019-02-17T16:20:05.495Z,56.80
2019-02-17T16:22:38.063Z,55.60
2019-02-17T16:25:09.331Z,56.30
2019-02-17T16:27:40.539Z,56.00
2019-02-17T16:30:18.012Z,59.00
2019-02-17T16:32:49.873Z,59.20
2019-02-17T16:35:22.309Z,59.40
2019-02-17T16:37:54.041Z,59.10
2019-02-17T16:40:26.135Z,61.40
2019-02-17T16:42:58.743Z,60.90
2019-02-17T16:45:31.589Z,59.80
2019-02-17T16:48:03.031Z,62.80
2019-02-17T16:50:35.276Z,63.50
2019-02-17T16:53:08.596Z,65.00
2019-02-17T16:55:40.127Z,65.50
2019-02-17T16:58:12.195Z,65.80
2019-02-17T17:00:44.171Z,67.50
2019-02-17T17:03:16.347Z,68.10
2019-02-17T17:05:47.476Z,68.00
2019-02-17T17:08:20.181Z,69.90
2019-02-17T17:10:52.734Z,73.80
2019-02-17T17:13:24.660Z,73.60
2019-02-17T17:15:56.794Z,77.60
2019-02-17T17:18:29.520Z,77.90
2019-02-17T17:21:01.393Z,84.30
2019-02-17T17:23:33.306Z,84.60
2019-02-17T17:26:05.491Z,86.80
2019-02-17T17:28:36.831Z,89.60
2019-02-17T17:31:08.953Z,91.20
2019-02-17T17:33:40.873Z,92.40
2019-02-17T17:36:12.718Z,93.20
2019-02-17T17:38:46.917Z,93.50
2019-02-17T17:41:19.228Z,95.20
2019-02-17T17:43:51.425Z,96.50
2019-02-17T17:46:23.817Z,99.10
2019-02-17T17:48:56.267Z,99.50
2019-02-17T17:51:28.712Z,99.90
2019-02-17T17:54:00.837Z,99.90
2019-02-17T17:56:33.161Z,99.90
2019-02-17T17:59:05.093Z,99.90
2019-02-17T18:01:37.977Z,99.90
2019-02-17T18:04:09.795Z,99.90
2019-02-17T18:06:41.984Z,99.90
2019-02-17T18:09:14.049Z,99.90
2019-02-17T18:11:47.003Z,99.90
2019-02-17T18:14:20.425Z,99.90
2019-02-17T18:16:52.735Z,99.90
2019-02-17T18:19:25.091Z,99.90
2019-02-17T18:21:57.151Z,99.90
2019-02-17T18:24:29.631Z,99.90
2019-02-17T18:27:01.197Z,99.90
2019-02-17T18:29:33.115Z,99.90
2019-02-17T18:32:04.672Z,99.90
2019-02-17T18:34:36.896Z,99.90
2019-02-17T18:37:07.947Z,99.90
2019-02-17T18:39:39.604Z,99.90
2019-02-17T18:42:11.760Z,99.90
2019-02-17T18:44:43.377Z,99.90
2019-02-17T18:47:15.392Z,99.90
2019-02-17T18:49:48.816Z,99.90
2019-02-17T18:52:21.226Z,99.90
2019-02-17T18:54:53.119Z,99.90
2019-02-17T18:57:26.833Z,99.90
2019-02-17T18:59:58.937Z,99.90
2019-02-17T19:02:32.302Z,99.90
2019-02-17T19:05:04.186Z,99.90
2019-02-17T19:07:35.874Z,99.90
2019-02-17T19:10:08.823Z,99.90
2019-02-17T19:12:41.347Z,99.90
2019-02-17T19:15:14.959Z,99.90
2019-02-17T19:17:47.379Z,99.90
2019-02-17T19:20:21.503Z,99.90
2019-02-17T19:22:53.601Z,99.90
2019-02-17T19:25:24.989Z,99.90
2019-02-17T19:27:56.846Z,99.90
2019-02-17T19:30:29.066Z,99.90
2019-02-17T19:33:01.589Z,99.90
2019-02-17T19:35:41.599Z,99.90
2019-02-17T19:38:07.740Z,99.90
2019-02-17T19:40:39.554Z,99.90
2019-02-17T19:43:11.359Z,99.90
2019-02-17T19:45:42.954Z,99.90
2019-02-17T19:48:17.744Z,99.90
2019-02-17T19:50:50.639Z,99.90
2019-02-17T19:53:23.107Z,99.90
2019-02-17T19:55:56.356Z,99.90
2019-02-17T19:58:28.266Z,99.90
2019-02-17T20:01:00.506Z,99.90
2019-02-17T20:03:39.375Z,99.90
2019-02-17T20:06:11.800Z,99.90
2019-02-17T20:08:43.705Z,99.90
2019-02-17T20:11:24.482Z,99.90
2019-02-17T20:13:56.660Z,99.90
2019-02-17T20:16:30.845Z,99.90
2019-02-17T20:19:03.033Z,99.90
2019-02-17T20:21:34.796Z,99.90
2019-02-17T20:24:08.116Z,99.90
2019-02-17T20:26:41.664Z,99.90
2019-02-17T20:29:13.457Z,99.90
2019-02-17T20:31:47.086Z,99.90
2019-02-17T20:34:20.672Z,99.90
2019-02-17T20:36:55.221Z,99.90
2019-02-17T20:39:27.586Z,99.90
2019-02-17T20:41:59.695Z,99.90
2019-02-17T20:44:39.723Z,99.90
2019-02-17T20:47:11.671Z,99.90
2019-02-17T20:49:44.554Z,99.90
2019-02-17T20:52:47.069Z,99.90
2019-02-17T20:55:25.303Z,99.90
2019-02-17T20:58:05.850Z,99.90
2019-02-17T21:00:38.601Z,99.90
2019-02-17T21:03:20.171Z,99.90
2019-02-17T21:05:57.943Z,99.90
2019-02-17T21:08:34.991Z,99.90
2019-02-17T21:11:08.698Z,99.90
2019-02-17T21:13:41.263Z,99.90
2019-02-17T21:16:14.529Z,99.90
2019-02-17T21:18:50.187Z,99.90
2019-02-17T21:21:23.171Z,99.90
2019-02-17T21:23:55.998Z,99.90
2019-02-17T21:26:27.849Z,99.90
2019-02-17T21:28:58.705Z,99.90
2019-02-17T21:31:31.568Z,99.90
2019-02-17T21:34:03.745Z,99.90
2019-02-17T21:36:35.034Z,99.90
2019-02-17T21:39:07.386Z,99.90
2019-02-17T21:41:38.945Z,99.90
2019-02-17T21:44:10.676Z,99.90
2019-02-17T21:46:42.148Z,99.90
2019-02-17T21:49:13.637Z,99.90
2019-02-17T21:51:46.032Z,99.90
2019-02-17T21:54:17.348Z,99.90
2019-02-17T21:56:49.027Z,99.90
2019-02-17T21:59:20.110Z,99.90
2019-02-17T22:01:50.901Z,99.90
2019-02-17T22:04:22.230Z,99.90
2019-02-17T22:06:53.306Z,99.90
2019-02-17T22:09:24.362Z,99.90
2019-02-17T22:11:55.717Z,99.90
2019-02-17T22:14:27.065Z,99.90
2019-02-17T22:16:59.104Z,99.90
2019-02-17T22:19:29.798Z,99.90
2019-02-17T22:22:01.814Z,99.90
2019-02-17T22:24:33.661Z,99.90
2019-02-17T22:27:04.675Z,99.90
2019-02-17T22:29:35.718Z,99.90
2019-02-17T22:32:06.788Z,99.90
2019-02-17T22:34:41.577Z,99.90
2019-02-17T22:37:13.335Z,99.90
2019-02-17T22:39:44.156Z,99.90
2019-02-17T22:42:14.748Z,99.90
2019-02-17T22:44:45.619Z,99.90
2019-02-17T22:47:16.567Z,99.90
2019-02-17T22:49:47.637Z,99.90
2019-02-17T22:52:18.353Z,99.90
2019-02-17T22:54:49.074Z,99.90
2019-02-17T22:57:20.101Z,99.90
2019-02-17T22:59:51.105Z,99.90
2019-02-17T23:02:22.748Z,99.90
2019-02-17T23:04:53.666Z,99.90
2019-02-17T23:07:24.338Z,99.90
2019-02-17T23:09:55.025Z,99.90
2019-02-17T23:12:27.080Z,99.90
2019-02-17T23:14:58.381Z,99.90
2019-02-17T23:17:29.246Z,99.90
2019-02-17T23:20:00.268Z,99.90
2019-02-17T23:22:31.858Z,99.90
2019-02-17T23:25:03.222Z,99.90
2019-02-17T23:27:33.906Z,99.90
2019-02-17T23:30:04.685Z,99.90
2019-02-17T23:32:36.631Z,99.90
2019-02-17T23:35:09.755Z,99.90
2019-02-17T23:37:41.141Z,99.90
2019-02-17T23:40:11.976Z,99.90
2019-02-17T23:42:43.153Z,99.90
2019-02-17T23:45:15.041Z,99.90
2019-02-17T23:47:46.286Z,99.90
2019-02-17T23:50:17.567Z,99.90
2019-02-17T23:52:49.063Z,99.90
2019-02-17T23:55:19.943Z,99.90
2019-02-17T23:57:51.382Z,99.90
